Time;durP1;ratioP1;P1;durP2;ratioP2;P2;SDS_P1;SDS_P2;PMS_P1;PMS_P2;Temp;Humidity;BMP_temperature;BMP_pressure;BME280_temperature;BME280_humidity;BME280_pressure;Samples;Min_cycle;Max_cycle;Signal;HPM_P1;HPM_P2
2023/03/17 00:01:15;;;;;;;2.70;2.33;;;16.40;38.30;;;;;;4975570;28;20461;-84
2023/03/17 00:03:44;;;;;;;2.70;2.50;;;16.40;38.30;;;;;;4982856;28;20454;-84
2023/03/17 00:06:14;;;;;;;2.70;2.43;;;16.40;38.40;;;;;;4983084;28;20541;-84
2023/03/17 00:08:44;;;;;;;3.53;2.40;;;16.40;38.40;;;;;;4984060;28;20541;-84
2023/03/17 00:11:13;;;;;;;2.43;2.23;;;16.40;38.50;;;;;;4984289;28;20468;-84
2023/03/17 00:13:42;;;;;;;2.23;2.03;;;16.40;38.40;;;;;;4984137;28;20462;-84
2023/03/17 00:16:13;;;;;;;2.60;2.40;;;16.40;38.60;;;;;;4984218;28;20530;-85
2023/03/17 00:18:42;;;;;;;3.00;2.53;;;16.40;38.50;;;;;;4985648;28;20474;-84
2023/03/17 00:21:11;;;;;;;3.00;2.80;;;16.40;38.70;;;;;;4981333;28;20565;-85
2023/03/17 00:23:40;;;;;;;2.63;2.50;;;16.40;38.70;;;;;;4979969;28;20456;-83
2023/03/17 00:26:09;;;;;;;2.70;2.50;;;16.40;38.80;;;;;;4980545;28;20477;-84
2023/03/17 00:28:38;;;;;;;2.30;2.13;;;16.40;38.80;;;;;;4984441;28;20557;-83
2023/03/17 00:31:13;;;;;;;2.40;2.30;;;16.40;38.80;;;;;;4985129;28;20457;-84
2023/03/17 00:33:41;;;;;;;2.37;2.23;;;16.40;38.80;;;;;;4973381;28;20457;-84
2023/03/17 00:36:10;;;;;;;2.60;2.40;;;16.40;38.80;;;;;;4982834;28;20489;-85
2023/03/17 00:38:40;;;;;;;2.60;2.40;;;16.40;38.90;;;;;;4979963;28;20462;-84
2023/03/17 00:41:08;;;;;;;2.30;2.20;;;16.30;38.90;;;;;;4987488;28;20450;-86
2023/03/17 00:43:37;;;;;;;2.43;2.30;;;16.30;38.90;;;;;;4987694;28;20465;-85
2023/03/17 00:46:10;;;;;;;3.30;2.50;;;16.30;39.00;;;;;;4990154;28;20480;-85
2023/03/17 00:48:38;;;;;;;2.50;2.30;;;16.30;39.00;;;;;;4980880;28;20470;-84
2023/03/17 00:51:06;;;;;;;3.50;2.20;;;16.30;39.10;;;;;;4982720;28;20450;-85
2023/03/17 00:53:34;;;;;;;2.50;2.40;;;16.30;39.20;;;;;;4987226;28;20453;-85
2023/03/17 00:56:05;;;;;;;2.50;2.37;;;16.30;39.10;;;;;;4987213;28;20497;-85
2023/03/17 00:58:34;;;;;;;2.53;2.20;;;16.30;39.20;;;;;;4986192;28;20541;-84
2023/03/17 01:01:02;;;;;;;1.93;1.83;;;16.30;39.30;;;;;;4984468;28;20449;-84
2023/03/17 01:03:31;;;;;;;2.57;2.47;;;16.30;39.30;;;;;;4987836;28;20454;-84
2023/03/17 01:05:59;;;;;;;2.40;2.30;;;16.30;39.30;;;;;;4984791;28;20473;-84
2023/03/17 01:08:29;;;;;;;2.10;2.00;;;16.30;39.30;;;;;;4986489;28;20466;-84
2023/03/17 01:10:57;;;;;;;2.70;2.60;;;16.30;39.40;;;;;;4977725;28;20458;-85
2023/03/17 01:13:27;;;;;;;2.87;2.67;;;16.30;39.40;;;;;;4981227;28;20465;-85
2023/03/17 01:15:55;;;;;;;2.33;2.13;;;16.30;39.50;;;;;;4986492;28;20549;-85
2023/03/17 01:18:24;;;;;;;2.40;2.30;;;16.30;39.50;;;;;;4982832;28;20481;-83
2023/03/17 01:20:53;;;;;;;2.97;2.77;;;16.20;39.50;;;;;;4980837;28;20451;-84
2023/03/17 01:23:21;;;;;;;2.43;2.23;;;16.20;39.40;;;;;;4976291;28;20461;-86
2023/03/17 01:25:50;;;;;;;4.90;2.90;;;16.20;39.50;;;;;;4983067;28;20520;-84
2023/03/17 01:28:18;;;;;;;2.70;2.50;;;16.20;39.50;;;;;;4979080;28;20474;-87
2023/03/17 01:30:48;;;;;;;2.70;2.50;;;16.20;39.70;;;;;;4978647;28;20493;-85
2023/03/17 01:33:17;;;;;;;2.50;2.40;;;16.20;39.50;;;;;;4978825;28;20525;-87
2023/03/17 01:35:46;;;;;;;2.90;2.70;;;16.20;39.60;;;;;;4976851;28;20477;-86
2023/03/17 01:38:17;;;;;;;4.23;2.70;;;16.20;39.60;;;;;;4981006;28;20449;-86
2023/03/17 01:40:46;;;;;;;3.90;3.20;;;16.20;39.70;;;;;;4981119;28;20476;-86
2023/03/17 01:43:21;;;;;;;5.03;4.07;;;16.20;39.70;;;;;;4977365;28;20436;-86
2023/03/17 01:46:19;;;;;;;4.37;3.93;;;16.20;39.80;;;;;;4977202;28;20473;-86
2023/03/17 01:48:52;;;;;;;4.53;4.13;;;16.20;39.80;;;;;;4980751;28;20478;-85
2023/03/17 01:51:23;;;;;;;7.17;5.17;;;16.20;39.80;;;;;;4979842;28;20457;-84
2023/03/17 01:53:52;;;;;;;6.40;4.73;;;16.10;39.90;;;;;;4979872;28;20468;-83
2023/03/17 01:56:20;;;;;;;5.00;4.50;;;16.20;40.00;;;;;;4980827;28;20549;-84
2023/03/17 01:58:50;;;;;;;5.93;4.60;;;16.20;40.10;;;;;;4983023;28;20505;-84
2023/03/17 02:01:19;;;;;;;7.20;4.53;;;16.20;40.00;;;;;;4978372;28;20455;-85
2023/03/17 02:03:49;;;;;;;7.67;5.10;;;16.20;40.10;;;;;;4980347;28;20454;-84
2023/03/17 02:06:17;;;;;;;6.43;4.87;;;16.10;40.00;;;;;;4979454;28;20478;-85
2023/03/17 02:08:46;;;;;;;6.93;4.90;;;16.20;40.10;;;;;;4980157;28;20464;-84
2023/03/17 02:11:14;;;;;;;5.57;4.63;;;16.20;40.10;;;;;;4980904;28;20541;-85
2023/03/17 02:13:43;;;;;;;5.47;4.97;;;16.10;40.10;;;;;;4979507;28;20481;-84
2023/03/17 02:16:14;;;;;;;5.43;4.93;;;16.10;40.10;;;;;;4981038;28;20470;-86
2023/03/17 02:18:44;;;;;;;6.20;5.00;;;16.10;40.20;;;;;;4978853;28;20534;-85
2023/03/17 02:21:37;;;;;;;8.10;4.60;;;16.20;40.20;;;;;;4980238;28;20458;-85
2023/03/17 02:24:08;;;;;;;5.67;4.10;;;16.10;40.10;;;;;;4980383;28;20470;-85
2023/03/17 02:26:37;;;;;;;5.87;4.53;;;16.20;40.40;;;;;;4969947;28;20474;-84
2023/03/17 02:29:05;;;;;;;5.40;4.27;;;16.10;40.30;;;;;;4969763;28;20488;-84
2023/03/17 02:31:34;;;;;;;4.30;3.90;;;16.10;40.30;;;;;;4972889;28;20460;-84
2023/03/17 02:34:03;;;;;;;8.27;4.37;;;16.10;40.40;;;;;;4972549;28;20462;-84
2023/03/17 02:36:33;;;;;;;4.73;4.33;;;16.10;40.40;;;;;;4970041;28;20568;-84
2023/03/17 02:39:01;;;;;;;7.93;4.83;;;16.10;40.40;;;;;;4974952;28;20465;-84
2023/03/17 02:41:29;;;;;;;4.00;3.60;;;16.10;40.40;;;;;;4974303;28;20450;-84
2023/03/17 02:43:57;;;;;;;4.40;4.00;;;16.10;40.50;;;;;;4980445;28;20457;-84
2023/03/17 02:46:25;;;;;;;4.37;3.97;;;16.10;40.50;;;;;;4976829;28;20492;-84
2023/03/17 02:48:54;;;;;;;5.17;4.63;;;16.10;40.50;;;;;;4968430;28;20458;-84
2023/03/17 02:51:22;;;;;;;4.80;4.30;;;16.10;40.60;;;;;;4976030;28;20561;-85
2023/03/17 02:54:01;;;;;;;5.70;4.07;;;16.10;40.60;;;;;;4974652;28;20545;-86
2023/03/17 02:56:29;;;;;;;4.13;3.60;;;16.10;40.60;;;;;;4978362;28;20505;-85
2023/03/17 02:59:00;;;;;;;4.87;4.37;;;16.00;40.60;;;;;;4979753;28;20461;-86
2023/03/17 03:01:29;;;;;;;3.77;3.47;;;16.10;40.70;;;;;;4977856;28;20545;-86
2023/03/17 03:03:58;;;;;;;5.03;4.23;;;16.00;40.70;;;;;;4978357;28;20477;-83
2023/03/17 03:06:28;;;;;;;3.87;3.50;;;16.00;40.60;;;;;;4979019;28;20561;-85
2023/03/17 03:09:00;;;;;;;4.40;4.00;;;16.00;40.70;;;;;;4973532;28;20482;-85
2023/03/17 03:11:28;;;;;;;4.40;3.77;;;16.00;40.80;;;;;;4976683;28;20558;-87
2023/03/17 03:13:56;;;;;;;6.70;4.03;;;16.00;40.80;;;;;;4979081;28;20468;-85
2023/03/17 03:16:25;;;;;;;4.00;3.70;;;16.00;40.90;;;;;;4981594;28;20480;-85
2023/03/17 03:18:53;;;;;;;6.00;3.77;;;16.00;40.80;;;;;;4976501;28;20852;-85
2023/03/17 03:21:22;;;;;;;4.40;4.00;;;15.90;40.80;;;;;;4981416;28;20454;-87
2023/03/17 03:23:50;;;;;;;4.10;3.70;;;15.90;40.80;;;;;;4979334;28;20467;-86
2023/03/17 03:26:19;;;;;;;4.20;3.80;;;16.00;40.90;;;;;;4976309;28;20474;-86
2023/03/17 03:28:47;;;;;;;3.67;3.37;;;15.90;40.80;;;;;;4976537;28;20827;-85
2023/03/17 03:31:15;;;;;;;4.47;3.50;;;15.90;40.90;;;;;;4977926;28;20489;-86
2023/03/17 03:33:44;;;;;;;4.00;3.53;;;15.90;40.90;;;;;;4980077;28;20464;-87
2023/03/17 03:36:12;;;;;;;4.83;3.77;;;15.90;41.10;;;;;;4976122;28;20476;-85
2023/03/17 03:38:41;;;;;;;4.27;3.87;;;15.90;41.10;;;;;;4977548;28;20450;-84
2023/03/17 03:41:10;;;;;;;3.60;3.30;;;15.90;41.10;;;;;;4974837;28;20454;-85
2023/03/17 03:43:39;;;;;;;3.43;3.13;;;15.90;41.20;;;;;;4967076;28;20462;-83
2023/03/17 03:46:07;;;;;;;3.90;3.50;;;15.80;41.10;;;;;;4975669;28;20495;-85
2023/03/17 03:48:36;;;;;;;4.17;3.77;;;15.80;41.20;;;;;;4975560;28;20553;-85
2023/03/17 03:51:04;;;;;;;3.60;3.40;;;15.80;41.10;;;;;;4975025;28;20474;-84
2023/03/17 03:53:32;;;;;;;3.77;3.47;;;15.80;41.10;;;;;;4975777;28;20458;-85
2023/03/17 03:56:01;;;;;;;5.17;3.50;;;15.80;41.20;;;;;;4974622;28;20485;-86
2023/03/17 03:58:29;;;;;;;3.97;3.57;;;15.80;41.20;;;;;;4972850;28;20454;-85
2023/03/17 04:00:59;;;;;;;3.80;3.47;;;15.80;41.30;;;;;;4972115;28;20457;-85
2023/03/17 04:03:27;;;;;;;3.83;3.50;;;15.80;41.30;;;;;;4973876;28;20453;-84
2023/03/17 04:05:56;;;;;;;3.50;3.20;;;15.70;41.20;;;;;;4974114;28;20726;-86
2023/03/17 04:08:26;;;;;;;3.73;3.43;;;15.80;41.70;;;;;;4971233;28;20533;-84
2023/03/17 04:10:54;;;;;;;4.47;3.60;;;15.70;41.30;;;;;;4973201;28;20536;-84
2023/03/17 04:13:22;;;;;;;3.13;2.93;;;15.70;41.20;;;;;;4972548;28;20462;-85
2023/03/17 04:15:50;;;;;;;3.33;3.03;;;15.70;41.30;;;;;;4971048;28;20482;-85
2023/03/17 04:18:21;;;;;;;3.20;2.60;;;15.70;41.30;;;;;;4970886;28;20530;-84
2023/03/17 04:20:49;;;;;;;3.63;3.30;;;15.70;41.30;;;;;;4971958;28;20546;-85
2023/03/17 04:23:18;;;;;;;4.50;3.60;;;15.70;41.30;;;;;;4966777;28;20455;-83
2023/03/17 04:25:46;;;;;;;3.20;2.90;;;15.70;41.40;;;;;;4971477;28;20481;-83
2023/03/17 04:28:15;;;;;;;3.30;3.10;;;15.70;41.40;;;;;;4972761;28;20464;-85
2023/03/17 04:30:43;;;;;;;3.47;3.07;;;15.70;41.40;;;;;;4970904;28;20471;-84
2023/03/17 04:33:12;;;;;;;3.10;2.87;;;15.70;41.40;;;;;;4974879;28;20482;-84
2023/03/17 04:35:42;;;;;;;3.03;2.83;;;15.70;41.40;;;;;;4969109;28;20482;-83
2023/03/17 04:38:11;;;;;;;3.57;3.27;;;15.60;41.30;;;;;;4975734;28;20458;-83
2023/03/17 04:40:40;;;;;;;3.60;3.30;;;15.60;41.40;;;;;;4973498;28;20454;-83
2023/03/17 04:43:09;;;;;;;3.67;3.30;;;15.60;41.40;;;;;;4975062;28;20478;-84
2023/03/17 04:45:37;;;;;;;3.57;3.10;;;15.60;41.40;;;;;;4970961;28;20478;-84
2023/03/17 04:48:06;;;;;;;3.10;2.90;;;15.60;41.50;;;;;;4971003;28;20556;-84
2023/03/17 04:50:35;;;;;;;3.43;3.17;;;15.60;41.50;;;;;;4968256;28;20478;-84
2023/03/17 04:53:05;;;;;;;3.87;3.07;;;15.60;41.40;;;;;;4971305;28;20522;-83
2023/03/17 04:55:33;;;;;;;7.63;2.90;;;15.60;41.60;;;;;;4970247;28;20521;-83
2023/03/17 04:58:02;;;;;;;3.47;3.17;;;15.60;41.50;;;;;;4965442;28;20469;-83
2023/03/17 05:00:30;;;;;;;2.77;2.57;;;15.60;41.50;;;;;;4966041;28;20468;-83
2023/03/17 05:02:58;;;;;;;3.23;3.03;;;15.50;41.50;;;;;;4971820;28;20454;-84
2023/03/17 05:05:27;;;;;;;3.47;3.00;;;15.60;41.60;;;;;;4969360;28;20459;-85
2023/03/17 05:07:55;;;;;;;2.70;2.60;;;15.50;42.10;;;;;;4968529;28;20462;-84
2023/03/17 05:10:26;;;;;;;3.20;2.90;;;15.60;41.70;;;;;;4977907;28;20496;-85
2023/03/17 05:12:54;;;;;;;3.57;3.27;;;15.50;41.60;;;;;;4973422;28;20459;-85
2023/03/17 05:15:23;;;;;;;3.23;2.97;;;15.50;41.60;;;;;;4969591;28;20438;-85
2023/03/17 05:17:51;;;;;;;2.93;2.73;;;15.60;41.60;;;;;;4965424;28;20442;-85
2023/03/17 05:20:19;;;;;;;3.17;2.87;;;15.50;41.50;;;;;;4978370;28;20518;-84
2023/03/17 05:22:47;;;;;;;2.90;2.70;;;15.50;41.50;;;;;;4976644;28;20533;-84
2023/03/17 05:25:15;;;;;;;2.90;2.57;;;15.50;41.60;;;;;;4969433;28;20459;-85
2023/03/17 05:27:45;;;;;;;3.47;2.93;;;15.50;41.60;;;;;;4974631;28;20476;-85
2023/03/17 05:30:17;;;;;;;3.40;3.10;;;15.50;41.60;;;;;;4982816;28;20517;-83
2023/03/17 05:32:45;;;;;;;2.60;2.40;;;15.60;41.70;;;;;;4983947;28;20474;-88
2023/03/17 05:35:13;;;;;;;2.93;2.73;;;15.50;41.60;;;;;;4976799;28;20521;-85
2023/03/17 05:37:42;;;;;;;2.60;2.50;;;15.50;41.70;;;;;;4974034;28;20458;-85
2023/03/17 05:40:11;;;;;;;3.27;3.07;;;15.50;41.70;;;;;;4974648;28;20465;-84
2023/03/17 05:42:40;;;;;;;6.43;2.77;;;15.50;41.70;;;;;;4969234;28;20465;-85
2023/03/17 05:45:10;;;;;;;3.13;2.83;;;15.50;41.60;;;;;;4975521;28;20694;-85
2023/03/17 05:47:38;;;;;;;3.87;3.00;;;15.50;41.70;;;;;;4975105;28;20454;-84
2023/03/17 05:50:09;;;;;;;3.43;2.60;;;15.50;41.70;;;;;;4975897;28;20462;-85
2023/03/17 05:52:37;;;;;;;3.40;2.77;;;15.50;41.70;;;;;;4972777;28;20471;-84
2023/03/17 05:55:08;;;;;;;2.77;2.57;;;15.50;41.70;;;;;;4972564;28;20826;-84
2023/03/17 05:57:37;;;;;;;2.80;2.50;;;15.50;41.60;;;;;;4977696;28;20513;-83
2023/03/17 06:00:07;;;;;;;2.70;2.50;;;15.50;41.70;;;;;;4978996;28;20458;-85
2023/03/17 06:02:37;;;;;;;2.27;2.17;;;15.50;41.70;;;;;;4975720;28;20989;-85
2023/03/17 06:05:07;;;;;;;3.03;2.77;;;15.60;41.80;;;;;;4976114;28;20465;-84
2023/03/17 06:07:36;;;;;;;2.83;2.63;;;15.60;41.70;;;;;;4978434;28;20465;-85
2023/03/17 06:10:20;;;;;;;3.30;2.77;;;15.60;41.60;;;;;;4981737;28;20442;-84
2023/03/17 06:12:48;;;;;;;3.20;2.60;;;15.60;41.70;;;;;;4974418;28;20512;-83
2023/03/17 06:15:16;;;;;;;2.50;2.40;;;15.60;41.70;;;;;;4981360;28;20462;-83
2023/03/17 06:17:46;;;;;;;2.80;2.60;;;15.60;41.60;;;;;;4977811;28;20546;-84
2023/03/17 06:20:14;;;;;;;2.90;2.70;;;15.60;41.70;;;;;;4976061;28;20454;-82
2023/03/17 06:22:42;;;;;;;2.77;2.57;;;15.60;41.60;;;;;;4976243;28;20549;-84
2023/03/17 06:25:30;;;;;;;2.80;2.60;;;15.70;41.70;;;;;;4972872;28;20473;-84
2023/03/17 06:28:02;;;;;;;2.20;2.10;;;15.70;41.70;;;;;;4977397;28;20521;-84
2023/03/17 06:30:31;;;;;;;2.97;2.77;;;15.70;41.70;;;;;;4978517;28;20493;-84
2023/03/17 06:33:01;;;;;;;2.60;2.40;;;15.70;41.80;;;;;;4978092;28;20538;-85
2023/03/17 06:35:29;;;;;;;2.83;2.63;;;15.70;41.70;;;;;;4975569;28;20454;-84
2023/03/17 06:37:58;;;;;;;2.57;2.37;;;15.70;41.80;;;;;;4976799;28;20473;-84
2023/03/17 06:40:26;;;;;;;2.70;2.50;;;15.80;41.70;;;;;;4975515;28;20538;-85
2023/03/17 06:42:55;;;;;;;2.87;2.67;;;15.80;41.70;;;;;;4978617;28;20450;-84
2023/03/17 06:45:23;;;;;;;2.60;2.50;;;15.80;41.70;;;;;;4974689;28;20463;-85
2023/03/17 06:47:51;;;;;;;2.30;2.20;;;15.90;41.80;;;;;;4978969;28;20496;-85
2023/03/17 06:50:21;;;;;;;2.67;2.47;;;15.90;41.80;;;;;;4972634;28;20522;-85
2023/03/17 06:52:49;;;;;;;3.00;2.80;;;15.90;41.60;;;;;;4973262;28;20537;-84
2023/03/17 06:55:17;;;;;;;3.70;2.77;;;16.00;41.70;;;;;;4978443;28;20549;-85
2023/03/17 06:57:45;;;;;;;2.33;2.13;;;16.00;41.70;;;;;;4975402;28;20512;-84
2023/03/17 07:00:17;;;;;;;2.80;2.60;;;16.10;41.70;;;;;;4977116;28;20457;-85
2023/03/17 07:02:46;;;;;;;3.00;2.80;;;16.10;41.60;;;;;;4975161;28;20465;-85
2023/03/17 07:05:14;;;;;;;3.00;2.80;;;16.20;41.50;;;;;;4977677;28;20463;-85
2023/03/17 07:07:43;;;;;;;2.80;2.60;;;16.20;41.50;;;;;;4975893;28;20462;-84
2023/03/17 07:10:14;;;;;;;2.70;2.60;;;16.30;41.40;;;;;;4975425;28;20458;-85
2023/03/17 07:12:42;;;;;;;2.80;2.60;;;16.30;41.40;;;;;;4970207;28;20467;-85
2023/03/17 07:15:11;;;;;;;2.50;2.40;;;16.30;41.30;;;;;;4975686;28;20575;-85
2023/03/17 07:17:40;;;;;;;2.70;2.50;;;16.40;41.50;;;;;;4973602;28;20454;-85
2023/03/17 07:20:09;;;;;;;2.43;2.33;;;16.40;41.40;;;;;;4974785;28;20461;-86
2023/03/17 07:22:38;;;;;;;2.80;2.60;;;16.40;41.30;;;;;;4972301;28;20454;-85
2023/03/17 07:25:08;;;;;;;2.87;2.67;;;16.50;41.40;;;;;;4973450;28;20466;-84
2023/03/17 07:27:37;;;;;;;2.60;2.10;;;16.50;41.30;;;;;;4975020;28;20489;-84
2023/03/17 07:30:06;;;;;;;2.90;2.50;;;16.50;41.30;;;;;;4969309;28;20542;-85
2023/03/17 07:32:35;;;;;;;2.80;2.60;;;16.50;41.30;;;;;;4977505;28;20476;-85
2023/03/17 07:35:03;;;;;;;3.77;2.60;;;16.50;41.20;;;;;;4973901;28;20458;-84
2023/03/17 07:37:32;;;;;;;2.60;2.40;;;16.60;41.30;;;;;;4972595;28;20478;-85
2023/03/17 07:40:00;;;;;;;2.90;2.70;;;16.60;41.10;;;;;;4975330;28;20739;-84
2023/03/17 07:42:30;;;;;;;3.43;3.10;;;16.60;41.00;;;;;;4972176;28;20459;-84
2023/03/17 07:44:58;;;;;;;2.90;2.70;;;16.60;41.00;;;;;;4976198;28;20457;-85
2023/03/17 07:47:26;;;;;;;3.03;2.83;;;16.70;41.10;;;;;;4968387;28;20477;-85
2023/03/17 07:49:55;;;;;;;3.50;3.03;;;16.70;41.00;;;;;;4972634;28;20458;-84
2023/03/17 07:52:23;;;;;;;2.77;2.60;;;16.80;41.00;;;;;;4972389;28;20474;-85
2023/03/17 07:54:52;;;;;;;5.13;2.60;;;16.80;40.90;;;;;;4972362;28;20461;-84
2023/03/17 07:57:20;;;;;;;2.80;2.60;;;16.90;41.00;;;;;;4977987;28;20532;-83
2023/03/17 07:59:51;;;;;;;2.90;2.70;;;16.90;40.90;;;;;;4976714;28;20468;-83
2023/03/17 08:02:19;;;;;;;3.30;2.57;;;17.00;40.90;;;;;;4975556;28;20823;-85
2023/03/17 08:04:48;;;;;;;3.07;2.80;;;17.00;40.90;;;;;;4974454;28;20501;-84
2023/03/17 08:07:17;;;;;;;5.57;2.30;;;17.00;40.90;;;;;;4975378;28;20567;-84
2023/03/17 08:09:45;;;;;;;3.00;2.70;;;17.10;40.80;;;;;;4973126;28;20989;-84
2023/03/17 08:12:14;;;;;;;2.93;2.73;;;17.10;40.80;;;;;;4971965;28;20835;-84
2023/03/17 08:14:42;;;;;;;2.50;2.30;;;17.20;40.90;;;;;;4976201;28;20450;-84
2023/03/17 08:17:12;;;;;;;2.60;2.50;;;17.30;40.80;;;;;;4970363;28;20549;-85
2023/03/17 08:19:41;;;;;;;2.50;2.30;;;17.40;40.80;;;;;;4977827;28;20458;-85
2023/03/17 08:22:09;;;;;;;2.10;2.00;;;17.50;41.00;;;;;;4973491;28;20485;-85
2023/03/17 08:24:38;;;;;;;2.60;2.40;;;17.70;41.10;;;;;;4972698;28;20494;-85
2023/03/17 08:27:07;;;;;;;2.63;2.50;;;17.80;41.00;;;;;;4974220;28;20499;-84
2023/03/17 08:29:35;;;;;;;2.60;2.40;;;18.10;41.10;;;;;;4976190;28;20484;-84
2023/03/17 08:32:03;;;;;;;2.07;1.87;;;18.30;41.20;;;;;;4977279;28;20454;-85
2023/03/17 08:34:32;;;;;;;2.17;1.93;;;18.50;41.10;;;;;;4970815;28;20479;-83
2023/03/17 08:37:01;;;;;;;3.27;2.27;;;18.80;41.00;;;;;;4971750;28;20477;-86
2023/03/17 08:39:30;;;;;;;2.30;2.10;;;19.10;41.10;;;;;;4974040;28;20461;-85
2023/03/17 08:41:58;;;;;;;2.10;2.00;;;19.20;40.90;;;;;;4981382;28;20455;-84
2023/03/17 08:44:27;;;;;;;4.07;3.00;;;19.40;40.90;;;;;;4965279;28;20467;-84
2023/03/17 08:46:55;;;;;;;2.23;2.03;;;19.60;40.80;;;;;;4972912;28;20482;-84
2023/03/17 08:49:23;;;;;;;2.40;2.13;;;19.80;40.70;;;;;;4971519;28;20466;-85
2023/03/17 08:51:53;;;;;;;2.47;2.27;;;20.00;40.70;;;;;;4967773;28;20459;-85
2023/03/17 08:54:21;;;;;;;2.20;1.93;;;20.20;40.70;;;;;;4967760;28;20490;-84
2023/03/17 08:56:49;;;;;;;3.63;1.90;;;20.40;40.70;;;;;;4968458;28;20475;-84
2023/03/17 08:59:18;;;;;;;2.00;1.90;;;20.60;40.60;;;;;;4968407;28;20454;-85
2023/03/17 09:01:46;;;;;;;2.20;2.07;;;20.80;40.70;;;;;;4974615;28;20462;-84
2023/03/17 09:04:15;;;;;;;1.97;1.87;;;21.00;40.60;;;;;;4975938;28;20450;-85
2023/03/17 09:06:44;;;;;;;2.10;2.00;;;21.20;40.20;;;;;;4978876;28;20511;-85
2023/03/17 09:09:31;;;;;;;1.93;1.83;;;21.40;40.30;;;;;;4975372;28;20533;-84
2023/03/17 09:11:59;;;;;;;2.10;1.83;;;21.60;40.30;;;;;;4977872;28;20454;-84
2023/03/17 09:14:27;;;;;;;2.07;1.80;;;21.70;40.20;;;;;;4973390;28;20471;-84
2023/03/17 09:17:00;;;;;;;2.17;2.00;;;21.90;40.10;;;;;;4982157;28;20483;-84
2023/03/17 09:19:32;;;;;;;1.90;1.80;;;22.10;40.10;;;;;;4976152;28;20465;-83
2023/03/17 09:22:01;;;;;;;2.00;1.90;;;22.30;40.10;;;;;;4972918;28;20463;-84
2023/03/17 09:24:31;;;;;;;2.33;2.13;;;22.40;40.10;;;;;;4975782;28;20454;-83
2023/03/17 09:27:00;;;;;;;1.90;1.80;;;22.60;40.00;;;;;;4976964;28;20511;-85
2023/03/17 09:29:28;;;;;;;1.93;1.83;;;22.80;40.10;;;;;;4968800;28;20545;-86
2023/03/17 09:32:00;;;;;;;1.80;1.70;;;23.00;40.00;;;;;;4976883;28;20545;-85
2023/03/17 09:34:28;;;;;;;1.83;1.73;;;23.10;39.80;;;;;;4973002;28;20458;-86
2023/03/17 09:36:58;;;;;;;2.40;2.20;;;23.30;39.80;;;;;;4970729;28;20565;-85
2023/03/17 09:39:26;;;;;;;1.70;1.60;;;23.50;39.80;;;;;;4976967;28;20969;-85
2023/03/17 09:42:32;;;;;;;2.20;2.10;;;23.60;39.60;;;;;;4970129;28;20460;-84
2023/03/17 09:45:12;;;;;;;6.13;1.70;;;23.80;39.50;;;;;;4942845;28;20457;-83
2023/03/17 09:47:53;;;;;;;1.90;1.80;;;23.90;39.20;;;;;;4972349;28;20478;-84
2023/03/17 09:50:24;;;;;;;1.87;1.77;;;24.10;39.30;;;;;;4978566;28;20568;-82
2023/03/17 09:52:52;;;;;;;2.37;1.90;;;24.30;39.10;;;;;;4978184;28;20457;-83
2023/03/17 09:55:25;;;;;;;1.90;1.80;;;24.40;38.90;;;;;;4976998;28;20495;-83
2023/03/17 09:57:55;;;;;;;2.23;2.00;;;24.60;38.90;;;;;;4978753;28;20540;-84
2023/03/17 10:00:26;;;;;;;1.73;1.63;;;24.80;39.00;;;;;;4982931;28;20452;-84
2023/03/17 10:02:54;;;;;;;2.17;1.97;;;24.90;38.90;;;;;;4982815;28;20472;-83
2023/03/17 10:05:23;;;;;;;1.90;1.80;;;25.00;38.70;;;;;;4974938;28;20457;-84
2023/03/17 10:07:58;;;;;;;3.10;1.67;;;25.20;38.80;;;;;;4979021;28;20465;-86
2023/03/17 10:10:28;;;;;;;2.80;1.93;;;25.30;38.70;;;;;;4980582;28;20458;-84
2023/03/17 10:13:02;;;;;;;2.00;1.73;;;25.50;38.50;;;;;;4975930;28;20459;-85
2023/03/17 10:15:34;;;;;;;6.77;1.90;;;25.70;38.40;;;;;;4977964;28;20457;-85
2023/03/17 10:18:08;;;;;;;1.93;1.83;;;26.00;38.30;;;;;;4975850;28;20552;-83
2023/03/17 10:20:37;;;;;;;2.77;2.57;;;26.20;38.10;;;;;;4984678;28;20457;-83
2023/03/17 10:23:06;;;;;;;3.10;1.97;;;26.30;37.70;;;;;;4973043;28;20481;-83
2023/03/17 10:25:35;;;;;;;2.63;2.43;;;26.50;37.50;;;;;;4972084;28;20482;-85
2023/03/17 10:28:07;;;;;;;3.10;2.00;;;26.60;37.20;;;;;;4974685;28;20500;-85
2023/03/17 10:30:35;;;;;;;2.10;2.00;;;26.70;37.10;;;;;;4978448;28;20956;-84
2023/03/17 10:33:05;;;;;;;2.50;2.40;;;26.90;36.90;;;;;;4978239;28;20435;-85
2023/03/17 10:35:35;;;;;;;2.30;2.20;;;27.10;36.70;;;;;;4982808;28;20478;-85
2023/03/17 10:38:05;;;;;;;2.30;2.20;;;27.30;36.50;;;;;;4975958;28;20493;-84
2023/03/17 10:40:41;;;;;;;2.40;2.20;;;27.50;36.20;;;;;;4978580;28;20465;-84
2023/03/17 10:43:19;;;;;;;2.30;2.10;;;27.70;36.10;;;;;;4975393;28;20949;-84
2023/03/17 10:45:54;;;;;;;2.40;2.13;;;27.80;35.90;;;;;;4978591;28;20449;-84
2023/03/17 10:48:22;;;;;;;2.67;1.83;;;27.90;35.80;;;;;;4978936;28;20465;-85
2023/03/17 10:50:51;;;;;;;2.10;2.00;;;28.00;35.80;;;;;;4972231;28;20459;-85
2023/03/17 10:53:26;;;;;;;2.37;2.20;;;28.20;35.90;;;;;;4977475;28;20992;-84
2023/03/17 10:55:57;;;;;;;2.43;2.33;;;28.30;35.80;;;;;;4977822;28;20497;-85
2023/03/17 10:58:36;;;;;;;2.33;2.23;;;28.50;35.80;;;;;;4983654;28;20456;-85
2023/03/17 11:01:06;;;;;;;2.10;2.00;;;28.80;35.80;;;;;;4977025;28;20432;-83
2023/03/17 11:03:37;;;;;;;2.37;2.27;;;29.00;35.50;;;;;;4973060;28;20486;-87
2023/03/17 11:06:07;;;;;;;2.13;2.03;;;29.20;35.20;;;;;;4972190;28;20485;-86
2023/03/17 11:08:37;;;;;;;2.13;1.93;;;29.50;35.20;;;;;;4971584;28;20512;-86
2023/03/17 11:11:07;;;;;;;2.90;2.10;;;29.60;34.90;;;;;;4971078;28;20547;-86
2023/03/17 11:13:36;;;;;;;2.90;2.10;;;29.90;34.60;;;;;;4970693;28;20520;-86
2023/03/17 11:16:09;;;;;;;1.83;1.73;;;30.20;34.50;;;;;;4970106;28;20474;-88
2023/03/17 11:18:38;;;;;;;2.60;1.83;;;30.50;34.10;;;;;;4970465;28;20425;-86
2023/03/17 11:21:07;;;;;;;2.10;2.00;;;30.70;33.80;;;;;;4972735;28;20424;-86
2023/03/17 11:23:49;;;;;;;2.37;2.13;;;31.40;33.60;;;;;;4967624;28;20472;-84
2023/03/17 11:26:31;;;;;;;2.30;2.20;;;32.30;32.60;;;;;;4967703;28;20488;-86
2023/03/17 11:29:11;;;;;;;1.70;1.60;;;33.40;31.60;;;;;;4970570;28;20498;-87
2023/03/17 11:31:41;;;;;;;2.37;2.27;;;34.30;30.40;;;;;;4969809;28;20462;-89
2023/03/17 11:34:10;;;;;;;2.67;2.10;;;34.90;30.00;;;;;;4968666;28;20470;-88
2023/03/17 11:36:44;;;;;;;2.10;2.00;;;35.00;29.00;;;;;;4969052;28;20481;-86
2023/03/17 11:39:12;;;;;;;2.40;2.20;;;35.50;28.70;;;;;;4969613;28;20462;-87
2023/03/17 11:41:46;;;;;;;2.10;2.00;;;35.10;28.30;;;;;;4969562;28;20541;-86
2023/03/17 11:44:39;;;;;;;2.33;2.23;;;34.50;28.50;;;;;;4970418;28;20463;-86
2023/03/17 11:47:11;;;;;;;3.20;2.50;;;34.10;29.10;;;;;;4972198;28;20505;-86
2023/03/17 11:49:39;;;;;;;2.10;2.00;;;34.40;29.60;;;;;;4971126;28;20458;-86
2023/03/17 11:52:12;;;;;;;2.00;1.90;;;36.00;29.30;;;;;;4981328;28;20441;-87
2023/03/17 11:54:45;;;;;;;2.10;2.00;;;37.50;27.80;;;;;;4969108;28;20470;-86
2023/03/17 11:57:16;;;;;;;1.87;1.83;;;38.50;27.40;;;;;;4969275;28;20470;-88
2023/03/17 11:59:47;;;;;;;1.67;1.67;;;39.50;26.10;;;;;;4967373;28;20453;-88
2023/03/17 12:02:22;;;;;;;1.77;1.67;;;40.10;25.40;;;;;;4970902;28;20454;-88
2023/03/17 12:04:53;;;;;;;2.17;1.97;;;40.40;24.90;;;;;;4971437;28;20469;-87
2023/03/17 12:07:23;;;;;;;1.53;1.43;;;40.40;25.20;;;;;;4971652;28;20477;-88
2023/03/17 12:09:57;;;;;;;1.70;1.60;;;41.20;24.90;;;;;;4971371;28;20449;-86
2023/03/17 12:12:28;;;;;;;1.97;1.70;;;41.40;24.00;;;;;;4964833;28;20453;-87
2023/03/17 12:14:57;;;;;;;1.57;1.57;;;40.90;23.90;;;;;;4970547;28;20469;-87
2023/03/17 12:17:27;;;;;;;1.87;1.87;;;40.80;24.00;;;;;;4974036;28;20574;-87
2023/03/17 12:20:04;;;;;;;1.60;1.60;;;40.10;24.10;;;;;;4969942;28;20460;-86
2023/03/17 12:22:34;;;;;;;1.70;1.70;;;39.40;24.60;;;;;;4969799;28;20461;-88
2023/03/17 12:25:05;;;;;;;1.80;1.80;;;38.90;24.90;;;;;;4969385;28;20481;-86
2023/03/17 12:27:34;;;;;;;2.80;1.50;;;39.00;25.80;;;;;;4964988;28;20976;-86
2023/03/17 12:30:07;;;;;;;1.83;1.83;;;39.50;24.60;;;;;;4967067;28;20466;-84
2023/03/17 12:32:38;;;;;;;2.10;1.80;;;38.80;24.90;;;;;;4964985;28;20509;-85
2023/03/17 12:35:19;;;;;;;1.77;1.77;;;38.10;25.40;;;;;;4969983;28;20549;-84
2023/03/17 12:37:47;;;;;;;2.00;1.90;;;37.80;25.80;;;;;;4974066;28;20461;-81
2023/03/17 12:40:17;;;;;;;4.17;3.87;;;38.00;26.00;;;;;;4970780;28;20455;-80
2023/03/17 12:42:46;;;;;;;3.70;3.60;;;33.70;22.50;;;;;;4975636;28;20462;-85
2023/03/17 12:45:37;;;;;;;5.10;4.50;;;33.20;23.20;;;;;;4975866;28;20493;-82
2023/03/17 12:48:21;;;;;;;5.23;4.73;;;30.40;25.00;;;;;;4974610;28;20469;-83
2023/03/17 12:51:05;;;;;;;4.83;4.23;;;31.00;24.90;;;;;;4974934;28;20450;-84
2023/03/17 12:53:33;;;;;;;5.10;4.60;;;32.20;24.40;;;;;;4973567;28;20462;-82
2023/03/17 12:56:06;;;;;;;5.43;4.93;;;30.50;23.90;;;;;;4971294;28;20470;-81
2023/03/17 12:58:36;;;;;;;6.10;4.93;;;29.30;25.60;;;;;;4974904;28;20448;-84
2023/03/17 13:01:17;;;;;;;5.03;4.63;;;29.10;25.00;;;;;;4975338;28;20458;-82
2023/03/17 13:03:46;;;;;;;8.90;4.33;;;28.40;25.60;;;;;;4968492;28;20989;-84